La Pineda, Spain
Current Conditions -  °F | °C
As of 9:30 AM on Saturday 29 Nov 2014 (Local Time) from LERS Reporting Station
Scattered Clouds Scattered Clouds  
Wind Chill: 63°   Ceiling: Unl
Heat Index: 63°   Visibility: 6mi
Dew Point: 57°   Wind: 18mph
Humidity: 82%   Direction: 70°ENE
Pressure: 29.44"   Gusts: NA
Location:  41.08°N, 1.19°E
Report Text: LERS 290830Z 07016KT 050V110 9999 FEW015 SCT040 17/14 Q0997 RERA
Loading
Personal Weather Stations






























Interactive Weather Map New forecast layout! Learn more

10-Day Weather Forecast

Advertisements
Track Severe Weather on mobile